Easton, Ohio
Current Conditions -  °F | °C
As of 9:56 PM on Wednesday 22 Oct 2014 (Local Time) from KBJJ Reporting Station
Overcast Overcast  
Wind Chill: 48°   Ceiling: 3500
Heat Index: 48°   Visibility: 10mi
Dew Point: 42°   Wind: 3mph
Humidity: 80%   Direction: 310°NW
Pressure: 30.24"   Gusts: NA
Location:  40.9626°N, 81.7765°W
Report Text: KBJJ 230156Z AUTO 31003KT 10SM OVC035 09/06 A3024 RMK AO2 SLP243 T00890056 TSNO
Loading
Personal Weather Stations






























Interactive Weather Map
Tropical Storm Tracking
New forecast layout! Learn more

10-Day Weather Forecast

Advertisements
Track Severe Weather on mobile